sensor_id;sensor_type;location;lat;lon;timestamp;P1;durP1;ratioP1;P2;durP2;ratioP2
72590;SDS011;60625;51.212;5.952;2023-05-27T00:02:59;15.50;;;3.90;;
72590;SDS011;60625;51.212;5.952;2023-05-27T00:08:02;18.60;;;3.40;;
72590;SDS011;60625;51.212;5.952;2023-05-27T00:13:03;14.00;;;3.00;;
72590;SDS011;60625;51.212;5.952;2023-05-27T00:18:04;16.70;;;3.30;;
72590;SDS011;60625;51.212;5.952;2023-05-27T00:23:05;15.10;;;3.00;;
72590;SDS011;60625;51.212;5.952;2023-05-27T00:28:06;16.20;;;3.40;;
72590;SDS011;60625;51.212;5.952;2023-05-27T00:33:06;13.00;;;3.00;;
72590;SDS011;60625;51.212;5.952;2023-05-27T00:38:07;10.90;;;2.90;;
72590;SDS011;60625;51.212;5.952;2023-05-27T00:43:08;17.40;;;3.30;;
72590;SDS011;60625;51.212;5.952;2023-05-27T00:48:09;14.10;;;3.10;;
72590;SDS011;60625;51.212;5.952;2023-05-27T00:53:10;17.20;;;3.50;;
72590;SDS011;60625;51.212;5.952;2023-05-27T00:58:11;15.50;;;3.60;;
72590;SDS011;60625;51.212;5.952;2023-05-27T01:03:12;13.50;;;4.00;;
72590;SDS011;60625;51.212;5.952;2023-05-27T01:08:31;17.40;;;3.50;;
72590;SDS011;60625;51.212;5.952;2023-05-27T01:13:40;19.10;;;4.30;;
72590;SDS011;60625;51.212;5.952;2023-05-27T01:18:45;18.50;;;4.00;;
72590;SDS011;60625;51.212;5.952;2023-05-27T01:23:48;15.60;;;3.80;;
72590;SDS011;60625;51.212;5.952;2023-05-27T01:28:49;15.40;;;3.40;;
72590;SDS011;60625;51.212;5.952;2023-05-27T01:34:06;13.30;;;3.40;;
72590;SDS011;60625;51.212;5.952;2023-05-27T01:39:09;17.40;;;4.10;;
72590;SDS011;60625;51.212;5.952;2023-05-27T01:44:14;15.10;;;3.70;;
72590;SDS011;60625;51.212;5.952;2023-05-27T01:49:17;16.30;;;3.50;;
72590;SDS011;60625;51.212;5.952;2023-05-27T01:54:18;9.70;;;2.70;;
72590;SDS011;60625;51.212;5.952;2023-05-27T01:59:19;17.60;;;3.80;;
72590;SDS011;60625;51.212;5.952;2023-05-27T02:04:20;22.20;;;4.10;;
72590;SDS011;60625;51.212;5.952;2023-05-27T02:09:21;11.80;;;3.60;;
72590;SDS011;60625;51.212;5.952;2023-05-27T02:14:21;19.50;;;4.50;;
72590;SDS011;60625;51.212;5.952;2023-05-27T02:19:22;13.50;;;3.50;;
72590;SDS011;60625;51.212;5.952;2023-05-27T02:24:22;13.80;;;3.50;;
72590;SDS011;60625;51.212;5.952;2023-05-27T02:29:23;14.70;;;3.50;;
72590;SDS011;60625;51.212;5.952;2023-05-27T02:34:23;15.40;;;3.90;;
72590;SDS011;60625;51.212;5.952;2023-05-27T02:39:25;13.40;;;3.50;;
72590;SDS011;60625;51.212;5.952;2023-05-27T02:44:25;19.30;;;4.00;;
72590;SDS011;60625;51.212;5.952;2023-05-27T02:49:25;21.70;;;4.60;;
72590;SDS011;60625;51.212;5.952;2023-05-27T02:54:26;18.40;;;4.50;;
72590;SDS011;60625;51.212;5.952;2023-05-27T02:59:26;14.30;;;4.30;;
72590;SDS011;60625;51.212;5.952;2023-05-27T03:04:27;16.40;;;4.10;;
72590;SDS011;60625;51.212;5.952;2023-05-27T03:09:28;14.20;;;4.30;;
72590;SDS011;60625;51.212;5.952;2023-05-27T03:14:29;13.80;;;4.30;;
72590;SDS011;60625;51.212;5.952;2023-05-27T03:19:29;19.70;;;4.30;;
72590;SDS011;60625;51.212;5.952;2023-05-27T03:24:30;21.00;;;4.80;;
72590;SDS011;60625;51.212;5.952;2023-05-27T03:29:30;14.40;;;3.90;;
72590;SDS011;60625;51.212;5.952;2023-05-27T03:34:31;16.30;;;4.70;;
72590;SDS011;60625;51.212;5.952;2023-05-27T03:39:32;15.50;;;4.30;;
72590;SDS011;60625;51.212;5.952;2023-05-27T03:44:34;15.10;;;3.80;;
72590;SDS011;60625;51.212;5.952;2023-05-27T03:49:35;22.00;;;4.40;;
72590;SDS011;60625;51.212;5.952;2023-05-27T03:54:36;14.00;;;4.30;;
72590;SDS011;60625;51.212;5.952;2023-05-27T03:59:37;15.30;;;4.40;;
72590;SDS011;60625;51.212;5.952;2023-05-27T04:04:37;14.80;;;4.30;;
72590;SDS011;60625;51.212;5.952;2023-05-27T04:09:38;12.80;;;4.10;;
72590;SDS011;60625;51.212;5.952;2023-05-27T04:14:39;17.50;;;4.80;;
72590;SDS011;60625;51.212;5.952;2023-05-27T04:19:40;17.50;;;4.70;;
72590;SDS011;60625;51.212;5.952;2023-05-27T04:24:41;13.40;;;4.40;;
72590;SDS011;60625;51.212;5.952;2023-05-27T04:29:44;15.40;;;4.60;;
72590;SDS011;60625;51.212;5.952;2023-05-27T04:34:47;19.80;;;5.00;;
72590;SDS011;60625;51.212;5.952;2023-05-27T04:39:49;14.80;;;4.10;;
72590;SDS011;60625;51.212;5.952;2023-05-27T04:44:50;13.90;;;5.10;;
72590;SDS011;60625;51.212;5.952;2023-05-27T04:49:52;22.10;;;5.50;;
72590;SDS011;60625;51.212;5.952;2023-05-27T04:54:52;19.60;;;5.50;;
72590;SDS011;60625;51.212;5.952;2023-05-27T05:00:05;23.20;;;5.70;;
72590;SDS011;60625;51.212;5.952;2023-05-27T05:05:08;18.90;;;5.70;;
72590;SDS011;60625;51.212;5.952;2023-05-27T05:10:11;19.50;;;5.60;;
72590;SDS011;60625;51.212;5.952;2023-05-27T05:15:19;17.30;;;5.40;;
72590;SDS011;60625;51.212;5.952;2023-05-27T05:20:20;17.40;;;5.50;;
72590;SDS011;60625;51.212;5.952;2023-05-27T05:25:21;27.60;;;6.80;;
72590;SDS011;60625;51.212;5.952;2023-05-27T05:30:23;24.50;;;5.80;;
72590;SDS011;60625;51.212;5.952;2023-05-27T05:35:24;18.40;;;5.50;;
72590;SDS011;60625;51.212;5.952;2023-05-27T05:40:28;19.20;;;5.40;;
72590;SDS011;60625;51.212;5.952;2023-05-27T05:45:46;23.80;;;5.90;;
72590;SDS011;60625;51.212;5.952;2023-05-27T05:50:48;22.00;;;6.40;;
72590;SDS011;60625;51.212;5.952;2023-05-27T05:55:48;23.20;;;5.60;;
72590;SDS011;60625;51.212;5.952;2023-05-27T06:00:50;19.00;;;5.50;;
72590;SDS011;60625;51.212;5.952;2023-05-27T06:06:09;18.30;;;5.60;;
72590;SDS011;60625;51.212;5.952;2023-05-27T06:11:22;23.10;;;6.80;;
72590;SDS011;60625;51.212;5.952;2023-05-27T06:16:23;21.20;;;6.30;;
72590;SDS011;60625;51.212;5.952;2023-05-27T06:21:24;19.50;;;6.10;;
72590;SDS011;60625;51.212;5.952;2023-05-27T06:26:45;21.50;;;6.10;;
72590;SDS011;60625;51.212;5.952;2023-05-27T06:31:45;18.60;;;5.90;;
72590;SDS011;60625;51.212;5.952;2023-05-27T06:36:48;26.50;;;7.30;;
72590;SDS011;60625;51.212;5.952;2023-05-27T06:41:49;22.80;;;6.30;;
72590;SDS011;60625;51.212;5.952;2023-05-27T06:47:27;22.00;;;5.90;;
72590;SDS011;60625;51.212;5.952;2023-05-27T06:52:29;18.90;;;5.70;;
72590;SDS011;60625;51.212;5.952;2023-05-27T06:57:46;17.80;;;5.30;;
72590;SDS011;60625;51.212;5.952;2023-05-27T07:02:53;18.60;;;5.30;;
72590;SDS011;60625;51.212;5.952;2023-05-27T07:07:53;22.90;;;5.20;;
72590;SDS011;60625;51.212;5.952;2023-05-27T07:12:54;17.40;;;4.90;;
72590;SDS011;60625;51.212;5.952;2023-05-27T07:17:59;15.10;;;4.80;;
72590;SDS011;60625;51.212;5.952;2023-05-27T07:23:01;19.60;;;5.00;;
72590;SDS011;60625;51.212;5.952;2023-05-27T07:28:02;17.10;;;5.30;;
72590;SDS011;60625;51.212;5.952;2023-05-27T07:33:04;17.80;;;5.20;;
72590;SDS011;60625;51.212;5.952;2023-05-27T07:38:05;18.70;;;5.20;;
72590;SDS011;60625;51.212;5.952;2023-05-27T07:43:06;22.10;;;5.40;;
72590;SDS011;60625;51.212;5.952;2023-05-27T07:48:07;26.40;;;5.10;;
72590;SDS011;60625;51.212;5.952;2023-05-27T07:53:08;17.30;;;5.60;;
72590;SDS011;60625;51.212;5.952;2023-05-27T07:58:10;18.60;;;5.10;;
72590;SDS011;60625;51.212;5.952;2023-05-27T08:03:22;18.80;;;4.80;;
72590;SDS011;60625;51.212;5.952;2023-05-27T08:08:42;19.00;;;4.50;;
72590;SDS011;60625;51.212;5.952;2023-05-27T08:13:54;20.30;;;5.00;;
72590;SDS011;60625;51.212;5.952;2023-05-27T08:19:15;15.80;;;4.20;;
72590;SDS011;60625;51.212;5.952;2023-05-27T08:24:28;17.60;;;5.10;;
72590;SDS011;60625;51.212;5.952;2023-05-27T08:29:37;19.20;;;4.80;;
72590;SDS011;60625;51.212;5.952;2023-05-27T08:35:12;18.50;;;4.00;;
72590;SDS011;60625;51.212;5.952;2023-05-27T08:40:14;17.80;;;4.40;;
72590;SDS011;60625;51.212;5.952;2023-05-27T08:45:20;16.00;;;5.10;;
72590;SDS011;60625;51.212;5.952;2023-05-27T08:50:22;16.60;;;4.70;;
72590;SDS011;60625;51.212;5.952;2023-05-27T08:55:23;16.20;;;4.90;;
72590;SDS011;60625;51.212;5.952;2023-05-27T09:00:27;15.40;;;4.50;;
72590;SDS011;60625;51.212;5.952;2023-05-27T09:05:32;17.30;;;4.30;;
72590;SDS011;60625;51.212;5.952;2023-05-27T09:10:40;16.60;;;4.40;;
72590;SDS011;60625;51.212;5.952;2023-05-27T09:15:42;21.70;;;5.00;;
72590;SDS011;60625;51.212;5.952;2023-05-27T09:20:43;20.30;;;4.70;;
72590;SDS011;60625;51.212;5.952;2023-05-27T09:25:43;17.20;;;4.70;;
72590;SDS011;60625;51.212;5.952;2023-05-27T09:30:44;18.00;;;5.00;;
72590;SDS011;60625;51.212;5.952;2023-05-27T09:35:46;14.70;;;4.20;;
72590;SDS011;60625;51.212;5.952;2023-05-27T09:40:47;19.50;;;4.80;;
72590;SDS011;60625;51.212;5.952;2023-05-27T09:45:49;18.90;;;4.60;;
72590;SDS011;60625;51.212;5.952;2023-05-27T09:50:52;15.50;;;3.60;;
72590;SDS011;60625;51.212;5.952;2023-05-27T09:55:53;12.10;;;3.40;;
72590;SDS011;60625;51.212;5.952;2023-05-27T10:00:55;17.80;;;3.90;;
72590;SDS011;60625;51.212;5.952;2023-05-27T10:05:58;12.70;;;3.50;;
72590;SDS011;60625;51.212;5.952;2023-05-27T10:11:01;15.60;;;4.50;;
72590;SDS011;60625;51.212;5.952;2023-05-27T10:16:02;16.70;;;4.50;;
72590;SDS011;60625;51.212;5.952;2023-05-27T10:21:04;19.70;;;4.40;;
72590;SDS011;60625;51.212;5.952;2023-05-27T10:26:07;15.80;;;4.90;;
72590;SDS011;60625;51.212;5.952;2023-05-27T10:31:09;16.70;;;4.60;;
72590;SDS011;60625;51.212;5.952;2023-05-27T10:36:12;15.60;;;4.30;;
72590;SDS011;60625;51.212;5.952;2023-05-27T10:41:15;18.30;;;4.40;;
72590;SDS011;60625;51.212;5.952;2023-05-27T10:46:17;17.10;;;4.20;;
72590;SDS011;60625;51.212;5.952;2023-05-27T10:51:17;15.60;;;3.90;;
72590;SDS011;60625;51.212;5.952;2023-05-27T10:56:18;15.70;;;4.30;;
72590;SDS011;60625;51.212;5.952;2023-05-27T11:01:23;10.70;;;3.20;;
72590;SDS011;60625;51.212;5.952;2023-05-27T11:06:27;11.60;;;3.60;;
72590;SDS011;60625;51.212;5.952;2023-05-27T11:11:29;17.20;;;4.40;;
72590;SDS011;60625;51.212;5.952;2023-05-27T11:16:30;14.70;;;4.20;;
72590;SDS011;60625;51.212;5.952;2023-05-27T11:21:30;11.20;;;3.80;;
72590;SDS011;60625;51.212;5.952;2023-05-27T11:26:32;16.50;;;4.00;;
72590;SDS011;60625;51.212;5.952;2023-05-27T11:31:32;11.50;;;3.40;;
72590;SDS011;60625;51.212;5.952;2023-05-27T11:36:35;14.70;;;3.90;;
72590;SDS011;60625;51.212;5.952;2023-05-27T11:41:50;12.50;;;3.30;;
72590;SDS011;60625;51.212;5.952;2023-05-27T11:46:58;12.30;;;3.40;;
72590;SDS011;60625;51.212;5.952;2023-05-27T11:52:03;22.20;;;4.00;;
72590;SDS011;60625;51.212;5.952;2023-05-27T11:57:05;12.20;;;3.60;;
72590;SDS011;60625;51.212;5.952;2023-05-27T12:02:11;13.40;;;3.70;;
72590;SDS011;60625;51.212;5.952;2023-05-27T12:07:15;14.70;;;3.40;;
72590;SDS011;60625;51.212;5.952;2023-05-27T12:12:18;13.00;;;3.70;;
72590;SDS011;60625;51.212;5.952;2023-05-27T12:17:19;15.20;;;3.60;;
72590;SDS011;60625;51.212;5.952;2023-05-27T12:22:20;13.80;;;3.40;;
72590;SDS011;60625;51.212;5.952;2023-05-27T12:27:21;15.20;;;3.70;;
72590;SDS011;60625;51.212;5.952;2023-05-27T12:32:22;41.40;;;4.60;;
72590;SDS011;60625;51.212;5.952;2023-05-27T12:37:23;20.10;;;4.10;;
72590;SDS011;60625;51.212;5.952;2023-05-27T12:42:25;16.90;;;4.00;;
72590;SDS011;60625;51.212;5.952;2023-05-27T12:47:25;14.60;;;3.60;;
72590;SDS011;60625;51.212;5.952;2023-05-27T12:52:26;13.00;;;3.50;;
72590;SDS011;60625;51.212;5.952;2023-05-27T12:57:29;14.30;;;3.70;;
72590;SDS011;60625;51.212;5.952;2023-05-27T13:02:30;14.00;;;4.10;;
72590;SDS011;60625;51.212;5.952;2023-05-27T13:07:31;16.80;;;4.10;;
72590;SDS011;60625;51.212;5.952;2023-05-27T13:12:33;19.10;;;4.40;;
72590;SDS011;60625;51.212;5.952;2023-05-27T13:17:34;11.50;;;3.40;;
72590;SDS011;60625;51.212;5.952;2023-05-27T13:22:36;12.20;;;3.50;;
72590;SDS011;60625;51.212;5.952;2023-05-27T13:27:38;13.90;;;3.80;;
72590;SDS011;60625;51.212;5.952;2023-05-27T13:32:42;10.90;;;3.20;;
72590;SDS011;60625;51.212;5.952;2023-05-27T13:37:44;11.80;;;4.00;;
72590;SDS011;60625;51.212;5.952;2023-05-27T13:42:45;13.70;;;4.20;;
72590;SDS011;60625;51.212;5.952;2023-05-27T13:47:45;14.40;;;3.70;;
72590;SDS011;60625;51.212;5.952;2023-05-27T13:52:46;12.50;;;3.70;;
72590;SDS011;60625;51.212;5.952;2023-05-27T13:57:47;10.40;;;3.40;;
72590;SDS011;60625;51.212;5.952;2023-05-27T14:02:47;17.70;;;3.90;;
72590;SDS011;60625;51.212;5.952;2023-05-27T14:07:48;10.00;;;3.00;;
72590;SDS011;60625;51.212;5.952;2023-05-27T14:12:49;8.80;;;3.00;;
72590;SDS011;60625;51.212;5.952;2023-05-27T14:17:49;13.10;;;3.00;;
72590;SDS011;60625;51.212;5.952;2023-05-27T14:22:50;12.10;;;3.40;;
72590;SDS011;60625;51.212;5.952;2023-05-27T14:27:51;11.00;;;3.40;;
72590;SDS011;60625;51.212;5.952;2023-05-27T14:32:51;8.80;;;3.20;;
72590;SDS011;60625;51.212;5.952;2023-05-27T14:37:53;9.80;;;3.00;;
72590;SDS011;60625;51.212;5.952;2023-05-27T14:42:54;9.80;;;3.00;;
72590;SDS011;60625;51.212;5.952;2023-05-27T14:47:55;15.80;;;3.70;;
72590;SDS011;60625;51.212;5.952;2023-05-27T14:52:55;9.20;;;3.20;;
72590;SDS011;60625;51.212;5.952;2023-05-27T14:57:56;14.40;;;3.70;;
72590;SDS011;60625;51.212;5.952;2023-05-27T15:03:10;11.70;;;3.20;;
72590;SDS011;60625;51.212;5.952;2023-05-27T15:08:11;13.40;;;3.30;;
72590;SDS011;60625;51.212;5.952;2023-05-27T15:13:16;12.80;;;3.90;;
72590;SDS011;60625;51.212;5.952;2023-05-27T15:18:17;10.20;;;3.50;;
72590;SDS011;60625;51.212;5.952;2023-05-27T15:23:17;12.80;;;3.90;;
72590;SDS011;60625;51.212;5.952;2023-05-27T15:28:17;11.50;;;3.70;;
72590;SDS011;60625;51.212;5.952;2023-05-27T15:33:18;16.40;;;4.20;;
72590;SDS011;60625;51.212;5.952;2023-05-27T15:38:19;12.00;;;4.00;;
72590;SDS011;60625;51.212;5.952;2023-05-27T15:43:19;9.70;;;4.00;;
72590;SDS011;60625;51.212;5.952;2023-05-27T15:48:21;15.10;;;3.80;;
72590;SDS011;60625;51.212;5.952;2023-05-27T15:53:21;12.20;;;3.80;;
72590;SDS011;60625;51.212;5.952;2023-05-27T15:58:21;9.00;;;3.50;;
72590;SDS011;60625;51.212;5.952;2023-05-27T16:03:22;13.00;;;4.00;;
72590;SDS011;60625;51.212;5.952;2023-05-27T16:08:23;12.40;;;3.80;;
72590;SDS011;60625;51.212;5.952;2023-05-27T16:13:24;12.70;;;3.60;;
72590;SDS011;60625;51.212;5.952;2023-05-27T16:18:25;13.20;;;4.40;;
72590;SDS011;60625;51.212;5.952;2023-05-27T16:23:26;11.40;;;3.50;;
72590;SDS011;60625;51.212;5.952;2023-05-27T16:28:26;11.50;;;3.80;;
72590;SDS011;60625;51.212;5.952;2023-05-27T16:33:26;11.40;;;4.50;;
72590;SDS011;60625;51.212;5.952;2023-05-27T16:38:30;13.30;;;4.10;;
72590;SDS011;60625;51.212;5.952;2023-05-27T16:43:30;11.80;;;4.00;;
72590;SDS011;60625;51.212;5.952;2023-05-27T16:48:31;14.90;;;3.80;;
72590;SDS011;60625;51.212;5.952;2023-05-27T16:53:31;11.20;;;3.80;;
72590;SDS011;60625;51.212;5.952;2023-05-27T16:58:32;14.10;;;4.10;;
72590;SDS011;60625;51.212;5.952;2023-05-27T17:03:33;12.10;;;4.20;;
72590;SDS011;60625;51.212;5.952;2023-05-27T17:08:34;11.30;;;3.80;;
72590;SDS011;60625;51.212;5.952;2023-05-27T17:13:35;11.40;;;4.00;;
72590;SDS011;60625;51.212;5.952;2023-05-27T17:18:36;9.00;;;3.60;;
72590;SDS011;60625;51.212;5.952;2023-05-27T17:23:37;11.80;;;3.90;;
72590;SDS011;60625;51.212;5.952;2023-05-27T17:28:37;13.10;;;4.10;;
72590;SDS011;60625;51.212;5.952;2023-05-27T17:33:38;15.70;;;4.60;;
72590;SDS011;60625;51.212;5.952;2023-05-27T17:38:39;10.80;;;3.70;;
72590;SDS011;60625;51.212;5.952;2023-05-27T17:43:40;12.20;;;4.50;;
72590;SDS011;60625;51.212;5.952;2023-05-27T17:48:41;14.40;;;4.50;;
72590;SDS011;60625;51.212;5.952;2023-05-27T17:53:42;10.30;;;4.00;;
72590;SDS011;60625;51.212;5.952;2023-05-27T17:58:43;12.80;;;3.70;;
72590;SDS011;60625;51.212;5.952;2023-05-27T18:03:44;10.80;;;4.10;;
72590;SDS011;60625;51.212;5.952;2023-05-27T18:08:45;12.10;;;3.80;;
72590;SDS011;60625;51.212;5.952;2023-05-27T18:13:46;11.60;;;3.80;;
72590;SDS011;60625;51.212;5.952;2023-05-27T18:18:46;10.60;;;4.20;;
72590;SDS011;60625;51.212;5.952;2023-05-27T18:23:47;9.00;;;3.50;;
72590;SDS011;60625;51.212;5.952;2023-05-27T18:28:47;13.30;;;3.60;;
72590;SDS011;60625;51.212;5.952;2023-05-27T18:33:48;9.70;;;3.80;;
72590;SDS011;60625;51.212;5.952;2023-05-27T18:38:50;13.40;;;4.20;;
72590;SDS011;60625;51.212;5.952;2023-05-27T18:43:51;11.20;;;3.50;;
72590;SDS011;60625;51.212;5.952;2023-05-27T18:48:51;11.90;;;3.70;;
72590;SDS011;60625;51.212;5.952;2023-05-27T18:53:51;11.60;;;3.80;;
72590;SDS011;60625;51.212;5.952;2023-05-27T18:58:52;9.50;;;4.10;;
72590;SDS011;60625;51.212;5.952;2023-05-27T19:03:56;9.30;;;3.80;;
72590;SDS011;60625;51.212;5.952;2023-05-27T19:08:57;14.40;;;3.30;;
72590;SDS011;60625;51.212;5.952;2023-05-27T19:13:59;10.40;;;4.00;;
72590;SDS011;60625;51.212;5.952;2023-05-27T19:19:00;13.20;;;3.20;;
72590;SDS011;60625;51.212;5.952;2023-05-27T19:24:00;12.20;;;3.80;;
72590;SDS011;60625;51.212;5.952;2023-05-27T19:29:02;12.40;;;3.80;;
72590;SDS011;60625;51.212;5.952;2023-05-27T19:34:03;12.00;;;4.10;;
72590;SDS011;60625;51.212;5.952;2023-05-27T19:39:03;9.10;;;3.50;;
72590;SDS011;60625;51.212;5.952;2023-05-27T19:44:04;12.70;;;4.20;;
72590;SDS011;60625;51.212;5.952;2023-05-27T19:49:04;9.70;;;3.40;;
72590;SDS011;60625;51.212;5.952;2023-05-27T19:54:05;11.30;;;3.80;;
72590;SDS011;60625;51.212;5.952;2023-05-27T19:59:05;9.00;;;4.20;;
72590;SDS011;60625;51.212;5.952;2023-05-27T20:04:06;10.40;;;3.80;;
72590;SDS011;60625;51.212;5.952;2023-05-27T20:09:07;9.90;;;3.90;;
72590;SDS011;60625;51.212;5.952;2023-05-27T20:14:07;12.70;;;3.90;;
72590;SDS011;60625;51.212;5.952;2023-05-27T20:19:08;12.80;;;4.20;;
72590;SDS011;60625;51.212;5.952;2023-05-27T20:24:08;13.30;;;3.40;;
72590;SDS011;60625;51.212;5.952;2023-05-27T20:29:09;12.50;;;3.80;;
72590;SDS011;60625;51.212;5.952;2023-05-27T20:34:09;11.30;;;4.00;;
72590;SDS011;60625;51.212;5.952;2023-05-27T20:39:10;10.90;;;4.20;;
72590;SDS011;60625;51.212;5.952;2023-05-27T20:44:11;14.70;;;4.50;;
72590;SDS011;60625;51.212;5.952;2023-05-27T20:49:11;10.50;;;4.00;;
72590;SDS011;60625;51.212;5.952;2023-05-27T20:54:11;12.60;;;3.70;;
72590;SDS011;60625;51.212;5.952;2023-05-27T20:59:12;16.20;;;4.00;;
72590;SDS011;60625;51.212;5.952;2023-05-27T21:04:12;11.10;;;4.40;;
72590;SDS011;60625;51.212;5.952;2023-05-27T21:09:16;11.60;;;4.70;;
72590;SDS011;60625;51.212;5.952;2023-05-27T21:14:17;12.10;;;4.30;;
72590;SDS011;60625;51.212;5.952;2023-05-27T21:19:17;13.80;;;4.70;;
72590;SDS011;60625;51.212;5.952;2023-05-27T21:24:17;11.60;;;4.10;;
72590;SDS011;60625;51.212;5.952;2023-05-27T21:29:18;10.10;;;4.40;;
72590;SDS011;60625;51.212;5.952;2023-05-27T21:34:18;16.30;;;4.20;;
72590;SDS011;60625;51.212;5.952;2023-05-27T21:39:22;13.40;;;4.40;;
72590;SDS011;60625;51.212;5.952;2023-05-27T21:44:22;12.40;;;4.40;;
72590;SDS011;60625;51.212;5.952;2023-05-27T21:49:23;9.00;;;4.00;;
72590;SDS011;60625;51.212;5.952;2023-05-27T21:54:25;10.70;;;3.90;;
72590;SDS011;60625;51.212;5.952;2023-05-27T21:59:25;12.90;;;4.40;;
72590;SDS011;60625;51.212;5.952;2023-05-27T22:04:26;11.40;;;4.40;;
72590;SDS011;60625;51.212;5.952;2023-05-27T22:09:26;12.00;;;4.10;;
72590;SDS011;60625;51.212;5.952;2023-05-27T22:14:27;10.70;;;3.90;;
72590;SDS011;60625;51.212;5.952;2023-05-27T22:19:27;12.40;;;4.20;;
72590;SDS011;60625;51.212;5.952;2023-05-27T22:24:28;8.80;;;3.80;;
72590;SDS011;60625;51.212;5.952;2023-05-27T22:29:28;14.20;;;4.30;;
72590;SDS011;60625;51.212;5.952;2023-05-27T22:34:29;10.70;;;4.30;;
72590;SDS011;60625;51.212;5.952;2023-05-27T22:39:29;10.10;;;4.10;;
72590;SDS011;60625;51.212;5.952;2023-05-27T22:44:30;10.20;;;4.10;;
72590;SDS011;60625;51.212;5.952;2023-05-27T22:49:30;10.30;;;3.60;;
72590;SDS011;60625;51.212;5.952;2023-05-27T22:54:34;14.00;;;4.10;;
72590;SDS011;60625;51.212;5.952;2023-05-27T22:59:34;9.00;;;4.00;;
72590;SDS011;60625;51.212;5.952;2023-05-27T23:04:35;8.70;;;3.80;;
72590;SDS011;60625;51.212;5.952;2023-05-27T23:09:35;13.20;;;3.60;;
72590;SDS011;60625;51.212;5.952;2023-05-27T23:14:36;10.60;;;4.20;;
72590;SDS011;60625;51.212;5.952;2023-05-27T23:19:37;11.30;;;3.20;;
72590;SDS011;60625;51.212;5.952;2023-05-27T23:24:37;7.90;;;3.40;;
72590;SDS011;60625;51.212;5.952;2023-05-27T23:29:38;16.00;;;4.50;;
72590;SDS011;60625;51.212;5.952;2023-05-27T23:34:38;12.10;;;3.50;;
72590;SDS011;60625;51.212;5.952;2023-05-27T23:39:39;9.90;;;3.60;;
72590;SDS011;60625;51.212;5.952;2023-05-27T23:44:40;9.80;;;3.20;;
72590;SDS011;60625;51.212;5.952;2023-05-27T23:49:40;15.80;;;3.60;;
72590;SDS011;60625;51.212;5.952;2023-05-27T23:54:41;11.00;;;3.80;;
72590;SDS011;60625;51.212;5.952;2023-05-27T23:59:41;10.00;;;3.80;;
